createdAt,value
2022-10-15T00:00:04.398Z,100.00
2022-10-15T00:01:13.632Z,100.00
2022-10-15T00:02:18.135Z,100.00
2022-10-15T00:03:19.953Z,100.00
2022-10-15T00:04:24.404Z,100.00
2022-10-15T00:05:26.258Z,100.00
2022-10-15T00:06:30.695Z,100.00
2022-10-15T00:07:32.549Z,100.00
2022-10-15T00:08:37.176Z,100.00
2022-10-15T00:09:39.051Z,100.00
2022-10-15T00:10:43.535Z,100.00
2022-10-15T00:11:48.009Z,100.00
2022-10-15T00:12:49.998Z,100.00
2022-10-15T00:13:57.755Z,100.00
2022-10-15T00:14:59.615Z,100.00
2022-10-15T00:16:04.114Z,100.00
2022-10-15T00:17:05.929Z,100.00
2022-10-15T00:18:10.398Z,100.00
2022-10-15T00:19:12.802Z,100.00
2022-10-15T00:20:17.238Z,100.00
2022-10-15T00:21:20.253Z,100.00
2022-10-15T00:22:24.992Z,100.00
2022-10-15T00:23:27.158Z,100.00
2022-10-15T00:24:31.611Z,100.00
2022-10-15T00:25:33.544Z,100.00
2022-10-15T00:26:38.189Z,100.00
2022-10-15T00:27:40.161Z,100.00
2022-10-15T00:28:44.839Z,100.00
2022-10-15T00:29:46.666Z,100.00
2022-10-15T00:30:51.169Z,100.00
2022-10-15T00:31:53.077Z,100.00
2022-10-15T00:32:57.483Z,100.00
2022-10-15T00:34:00.183Z,100.00
2022-10-15T00:35:04.706Z,100.00
2022-10-15T00:36:07.897Z,100.00
2022-10-15T00:37:12.407Z,100.00
2022-10-15T00:38:14.242Z,100.00
2022-10-15T00:39:18.748Z,100.00
2022-10-15T00:40:21.513Z,100.00
2022-10-15T00:41:31.073Z,100.00
2022-10-15T00:42:32.944Z,100.00
2022-10-15T00:43:38.604Z,100.00
2022-10-15T00:44:47.547Z,100.00
2022-10-15T00:45:51.943Z,100.00
2022-10-15T00:46:55.018Z,100.00
2022-10-15T00:47:59.553Z,100.00
2022-10-15T00:49:08.107Z,100.00
2022-10-15T00:50:15.127Z,100.00
2022-10-15T00:51:17.865Z,100.00
2022-10-15T00:52:23.803Z,100.00
2022-10-15T00:53:25.806Z,100.00
2022-10-15T00:54:30.578Z,100.00
2022-10-15T00:55:32.398Z,100.00
2022-10-15T00:56:36.837Z,100.00
2022-10-15T00:57:38.685Z,100.00
2022-10-15T00:58:43.360Z,100.00
2022-10-15T00:59:48.064Z,100.00
2022-10-15T01:00:52.817Z,100.00
2022-10-15T01:01:54.878Z,100.00
2022-10-15T01:02:59.306Z,100.00
2022-10-15T01:04:01.130Z,100.00
2022-10-15T01:05:05.741Z,100.00
2022-10-15T01:06:07.602Z,100.00
2022-10-15T01:07:12.027Z,100.00
2022-10-15T01:08:13.949Z,100.00
2022-10-15T01:09:18.393Z,100.00
2022-10-15T01:10:20.886Z,100.00
2022-10-15T01:11:46.881Z,100.00
2022-10-15T01:12:54.466Z,100.00
2022-10-15T01:14:08.175Z,100.00
2022-10-15T01:15:13.930Z,100.00
2022-10-15T01:16:24.016Z,100.00
2022-10-15T01:17:27.909Z,100.00
2022-10-15T01:18:36.146Z,100.00
2022-10-15T01:19:45.471Z,100.00
2022-10-15T01:20:52.270Z,100.00
2022-10-15T01:22:13.466Z,100.00
2022-10-15T01:23:15.341Z,100.00
2022-10-15T01:24:36.609Z,100.00
2022-10-15T01:25:41.298Z,100.00
2022-10-15T01:26:54.765Z,100.00
2022-10-15T01:28:05.318Z,100.00
2022-10-15T01:29:07.123Z,100.00
2022-10-15T01:30:31.221Z,100.00
2022-10-15T01:31:42.056Z,100.00
2022-10-15T01:32:46.583Z,100.00
2022-10-15T01:34:04.997Z,100.00
2022-10-15T01:35:23.515Z,100.00
2022-10-15T01:36:31.364Z,100.00
2022-10-15T01:37:33.148Z,100.00
2022-10-15T01:38:46.561Z,100.00
2022-10-15T01:40:04.397Z,100.00
2022-10-15T01:41:13.636Z,100.00
2022-10-15T01:42:19.535Z,100.00
2022-10-15T01:43:25.646Z,100.00
2022-10-15T01:45:15.170Z,100.00
2022-10-15T01:46:43.437Z,100.00
2022-10-15T01:47:57.635Z,100.00
2022-10-15T01:48:59.540Z,100.00
2022-10-15T01:50:04.045Z,100.00
2022-10-15T01:51:07.070Z,100.00
2022-10-15T01:52:12.390Z,100.00
2022-10-15T01:53:18.447Z,100.00
2022-10-15T01:54:22.870Z,100.00
2022-10-15T01:55:26.664Z,100.00
2022-10-15T01:56:31.441Z,100.00
2022-10-15T01:57:33.614Z,100.00
2022-10-15T01:58:40.840Z,100.00
2022-10-15T01:59:43.199Z,100.00
2022-10-15T02:00:47.677Z,100.00
2022-10-15T02:01:49.542Z,100.00
2022-10-15T02:02:54.030Z,100.00
2022-10-15T02:03:55.858Z,100.00
2022-10-15T02:05:00.274Z,100.00
2022-10-15T02:06:06.848Z,100.00
2022-10-15T02:07:30.303Z,100.00
2022-10-15T02:08:39.333Z,100.00
2022-10-15T02:10:04.018Z,100.00
2022-10-15T02:11:17.852Z,100.00
2022-10-15T02:12:22.611Z,100.00
2022-10-15T02:13:43.779Z,100.00
2022-10-15T02:15:01.807Z,100.00
2022-10-15T02:16:13.241Z,100.00
2022-10-15T02:17:17.954Z,100.00
2022-10-15T02:18:23.098Z,100.00
2022-10-15T02:19:48.323Z,100.00
2022-10-15T02:21:03.938Z,100.00
2022-10-15T02:22:14.085Z,100.00
2022-10-15T02:23:17.962Z,100.00
2022-10-15T02:24:23.302Z,100.00
2022-10-15T02:25:25.124Z,100.00
2022-10-15T02:26:30.829Z,100.00
2022-10-15T02:27:33.377Z,100.00
2022-10-15T02:28:37.836Z,100.00
2022-10-15T02:29:39.697Z,100.00
2022-10-15T02:30:44.871Z,100.00
2022-10-15T02:31:47.687Z,100.00
2022-10-15T02:32:54.036Z,100.00
2022-10-15T02:33:57.275Z,100.00
2022-10-15T02:35:01.775Z,100.00
2022-10-15T02:36:06.350Z,100.00
2022-10-15T02:37:09.174Z,100.00
2022-10-15T02:39:38.395Z,100.00
2022-10-15T02:40:40.303Z,100.00
2022-10-15T02:41:44.742Z,100.00
2022-10-15T02:42:49.666Z,100.00
2022-10-15T02:43:54.265Z,100.00
2022-10-15T02:44:56.664Z,100.00
2022-10-15T02:46:01.149Z,100.00
2022-10-15T02:47:02.995Z,100.00
2022-10-15T02:48:07.926Z,100.00
2022-10-15T02:49:10.274Z,100.00
2022-10-15T02:50:14.803Z,100.00
2022-10-15T02:51:16.635Z,100.00
2022-10-15T02:52:21.335Z,100.00
2022-10-15T02:53:25.954Z,100.00
2022-10-15T02:54:27.817Z,100.00
2022-10-15T02:55:32.371Z,100.00
2022-10-15T02:56:34.679Z,100.00
2022-10-15T02:57:39.455Z,100.00
2022-10-15T02:58:42.585Z,100.00
2022-10-15T02:59:47.073Z,100.00
2022-10-15T03:00:49.311Z,100.00
2022-10-15T03:01:53.814Z,100.00
2022-10-15T03:02:56.469Z,100.00
2022-10-15T03:04:01.380Z,100.00
2022-10-15T03:06:36.654Z,100.00
2022-10-15T03:07:38.536Z,100.00
2022-10-15T03:08:43.073Z,100.00
2022-10-15T03:09:45.203Z,100.00
2022-10-15T03:10:51.047Z,100.00
2022-10-15T03:11:53.047Z,100.00
2022-10-15T03:12:58.575Z,100.00
2022-10-15T03:14:00.439Z,100.00
2022-10-15T03:15:05.471Z,100.00
2022-10-15T03:16:08.075Z,100.00
2022-10-15T03:17:13.561Z,100.00
2022-10-15T03:18:15.649Z,100.00
2022-10-15T03:19:20.702Z,100.00
2022-10-15T03:20:23.055Z,100.00
2022-10-15T03:21:30.909Z,100.00
2022-10-15T03:22:38.855Z,100.00
2022-10-15T03:23:43.278Z,100.00
2022-10-15T03:24:51.631Z,100.00
2022-10-15T03:26:01.242Z,100.00
2022-10-15T03:27:03.637Z,100.00
2022-10-15T03:28:08.160Z,100.00
2022-10-15T03:29:16.457Z,100.00
2022-10-15T03:30:24.810Z,100.00
2022-10-15T03:31:29.602Z,100.00
2022-10-15T03:32:36.203Z,100.00
2022-10-15T03:33:41.910Z,100.00
2022-10-15T03:34:43.767Z,100.00
2022-10-15T03:35:52.036Z,100.00
2022-10-15T03:36:56.465Z,100.00
2022-10-15T03:37:58.617Z,100.00
2022-10-15T03:39:03.263Z,100.00
2022-10-15T03:40:07.398Z,100.00
2022-10-15T03:41:15.009Z,100.00
2022-10-15T03:42:17.891Z,100.00
2022-10-15T03:43:22.781Z,100.00
2022-10-15T03:44:24.582Z,100.00
2022-10-15T03:45:40.225Z,100.00
2022-10-15T03:46:54.577Z,100.00
2022-10-15T03:47:59.367Z,100.00
2022-10-15T03:49:07.578Z,100.00
2022-10-15T03:50:10.870Z,100.00
2022-10-15T03:51:18.170Z,100.00
2022-10-15T03:52:27.416Z,100.00
2022-10-15T03:53:32.621Z,100.00
2022-10-15T03:54:34.735Z,100.00
2022-10-15T03:55:40.137Z,100.00
2022-10-15T03:56:42.975Z,100.00
2022-10-15T03:58:05.356Z,100.00
2022-10-15T03:59:07.639Z,100.00
2022-10-15T04:00:12.289Z,100.00
2022-10-15T04:01:15.002Z,100.00
2022-10-15T04:02:19.992Z,100.00
2022-10-15T04:03:24.335Z,100.00
2022-10-15T04:04:28.849Z,100.00
2022-10-15T04:05:30.751Z,100.00
2022-10-15T04:06:41.449Z,100.00
2022-10-15T04:07:47.689Z,100.00
2022-10-15T04:08:56.892Z,100.00
2022-10-15T04:10:00.522Z,100.00
2022-10-15T04:11:12.051Z,100.00
2022-10-15T04:12:14.111Z,100.00
2022-10-15T04:13:18.584Z,100.00
2022-10-15T04:14:20.555Z,100.00
2022-10-15T04:15:24.998Z,100.00
2022-10-15T04:16:30.798Z,100.00
2022-10-15T04:17:35.295Z,100.00
2022-10-15T04:18:37.375Z,100.00
2022-10-15T04:19:42.409Z,100.00
2022-10-15T04:20:44.279Z,100.00
2022-10-15T04:21:51.330Z,100.00
2022-10-15T04:23:05.022Z,100.00
2022-10-15T04:24:09.679Z,100.00
2022-10-15T04:25:15.136Z,100.00
2022-10-15T04:26:20.161Z,100.00
2022-10-15T04:27:22.136Z,100.00
2022-10-15T04:28:27.114Z,100.00
2022-10-15T04:29:29.071Z,100.00
2022-10-15T04:30:43.289Z,100.00
2022-10-15T04:31:47.786Z,100.00
2022-10-15T04:32:54.424Z,100.00
2022-10-15T04:33:56.272Z,100.00
2022-10-15T04:35:00.857Z,100.00
2022-10-15T04:36:21.676Z,100.00
2022-10-15T04:37:37.358Z,100.00
2022-10-15T04:38:41.911Z,100.00
2022-10-15T04:39:43.735Z,100.00
2022-10-15T04:40:50.993Z,100.00
2022-10-15T04:41:52.811Z,100.00
2022-10-15T04:43:04.166Z,100.00
2022-10-15T04:44:06.077Z,100.00
2022-10-15T04:45:11.268Z,100.00
2022-10-15T04:46:13.808Z,100.00
2022-10-15T04:47:18.305Z,100.00
2022-10-15T04:48:26.011Z,100.00
2022-10-15T04:49:30.437Z,100.00
2022-10-15T04:50:32.386Z,100.00
2022-10-15T04:51:56.368Z,100.00
2022-10-15T04:53:03.823Z,100.00
2022-10-15T04:54:11.955Z,100.00
2022-10-15T04:55:31.350Z,100.00
2022-10-15T04:56:35.421Z,100.00
2022-10-15T04:57:40.052Z,100.00
2022-10-15T04:58:42.841Z,100.00
2022-10-15T04:59:47.351Z,100.00
2022-10-15T05:01:06.505Z,100.00
2022-10-15T05:02:19.369Z,100.00
2022-10-15T05:03:28.693Z,100.00
2022-10-15T05:04:37.930Z,100.00
2022-10-15T05:05:42.571Z,100.00
2022-10-15T05:06:47.332Z,100.00
2022-10-15T05:07:53.151Z,100.00
2022-10-15T05:08:57.636Z,100.00
2022-10-15T05:10:03.062Z,100.00
2022-10-15T05:11:08.384Z,100.00
2022-10-15T05:12:10.336Z,100.00
2022-10-15T05:13:14.756Z,100.00
2022-10-15T05:14:19.742Z,100.00
2022-10-15T05:15:37.458Z,100.00
2022-10-15T05:16:44.680Z,100.00
2022-10-15T05:17:47.377Z,100.00
2022-10-15T05:18:53.396Z,100.00
2022-10-15T05:19:55.220Z,100.00
2022-10-15T05:21:04.622Z,100.00
2022-10-15T05:22:07.646Z,100.00
2022-10-15T05:23:17.730Z,100.00
2022-10-15T05:24:30.569Z,100.00
2022-10-15T05:25:37.473Z,100.00
2022-10-15T05:26:41.973Z,100.00
2022-10-15T05:27:44.565Z,100.00
2022-10-15T05:28:49.345Z,100.00
2022-10-15T05:29:59.499Z,100.00
2022-10-15T05:31:17.700Z,100.00
2022-10-15T05:33:27.645Z,100.00
2022-10-15T05:34:32.162Z,100.00
2022-10-15T05:35:40.559Z,100.00
2022-10-15T05:36:44.989Z,100.00
2022-10-15T05:37:46.847Z,100.00
2022-10-15T05:38:56.062Z,100.00
2022-10-15T05:39:57.928Z,100.00
2022-10-15T05:41:02.995Z,100.00
2022-10-15T05:42:07.635Z,100.00
2022-10-15T05:43:24.015Z,100.00
2022-10-15T05:44:28.474Z,100.00
2022-10-15T05:45:30.342Z,100.00
2022-10-15T05:46:40.562Z,100.00
2022-10-15T05:47:42.409Z,100.00
2022-10-15T05:48:53.169Z,100.00
2022-10-15T05:49:55.138Z,100.00
2022-10-15T05:51:09.268Z,100.00
2022-10-15T05:52:11.139Z,100.00
2022-10-15T05:53:35.522Z,100.00
2022-10-15T05:54:42.116Z,100.00
2022-10-15T05:55:46.506Z,100.00
2022-10-15T05:56:48.398Z,100.00
2022-10-15T05:57:52.965Z,100.00
2022-10-15T05:58:54.792Z,100.00
2022-10-15T05:59:59.850Z,100.00
2022-10-15T06:01:02.434Z,100.00
2022-10-15T06:02:08.351Z,100.00
2022-10-15T06:03:12.163Z,100.00
2022-10-15T06:04:17.188Z,100.00
2022-10-15T06:05:19.075Z,100.00
2022-10-15T06:06:24.356Z,100.00
2022-10-15T06:07:26.860Z,100.00
2022-10-15T06:08:31.946Z,100.00
2022-10-15T06:09:36.450Z,100.00
2022-10-15T06:10:38.398Z,100.00
2022-10-15T06:11:42.935Z,100.00
2022-10-15T06:12:51.709Z,100.00
2022-10-15T06:13:56.137Z,100.00
2022-10-15T06:14:58.035Z,100.00
2022-10-15T06:16:02.637Z,100.00
2022-10-15T06:17:04.429Z,100.00
2022-10-15T06:18:08.867Z,100.00
2022-10-15T06:19:10.717Z,100.00
2022-10-15T06:20:15.715Z,100.00
2022-10-15T06:21:17.500Z,100.00
2022-10-15T06:22:21.949Z,100.00
2022-10-15T06:23:24.469Z,100.00
2022-10-15T06:24:28.925Z,100.00
2022-10-15T06:25:31.228Z,100.00
2022-10-15T06:26:35.612Z,100.00
2022-10-15T06:27:37.453Z,100.00
2022-10-15T06:28:42.430Z,100.00
2022-10-15T06:29:44.316Z,100.00
2022-10-15T06:30:48.734Z,100.00
2022-10-15T06:31:50.591Z,100.00
2022-10-15T06:32:55.816Z,100.00
2022-10-15T06:33:57.624Z,100.00
2022-10-15T06:35:02.025Z,100.00
2022-10-15T06:36:07.667Z,100.00
2022-10-15T06:37:12.127Z,100.00
2022-10-15T06:38:13.942Z,100.00
2022-10-15T06:39:18.582Z,100.00
2022-10-15T06:40:20.516Z,100.00
2022-10-15T06:41:25.911Z,100.00
2022-10-15T06:42:27.748Z,100.00
2022-10-15T06:43:35.234Z,100.00
2022-10-15T06:44:38.124Z,100.00
2022-10-15T06:45:43.525Z,100.00
2022-10-15T06:46:51.791Z,100.00
2022-10-15T06:47:56.293Z,100.00
2022-10-15T06:48:58.137Z,100.00
2022-10-15T06:50:02.775Z,100.00
2022-10-15T06:51:05.070Z,100.00
2022-10-15T06:52:09.815Z,100.00
2022-10-15T06:53:11.689Z,100.00
2022-10-15T06:54:16.393Z,100.00
2022-10-15T06:55:18.246Z,100.00
2022-10-15T06:56:22.731Z,100.00
2022-10-15T06:57:26.163Z,100.00
2022-10-15T06:58:30.865Z,100.00
2022-10-15T06:59:33.291Z,100.00
2022-10-15T07:00:39.379Z,100.00
2022-10-15T07:01:43.823Z,100.00
2022-10-15T07:02:45.887Z,100.00
2022-10-15T07:03:53.649Z,100.00
2022-10-15T07:04:55.459Z,100.00
2022-10-15T07:06:04.518Z,100.00
2022-10-15T07:07:06.442Z,100.00
2022-10-15T07:08:13.159Z,100.00
2022-10-15T07:09:17.245Z,100.00
2022-10-15T07:10:21.650Z,100.00
2022-10-15T07:11:23.542Z,100.00
2022-10-15T07:12:27.945Z,100.00
2022-10-15T07:13:30.041Z,100.00
2022-10-15T07:14:40.073Z,100.00
2022-10-15T07:15:46.413Z,100.00
2022-10-15T07:16:50.841Z,100.00
2022-10-15T07:17:53.486Z,100.00
2022-10-15T07:18:58.012Z,100.00
2022-10-15T07:19:59.856Z,100.00
2022-10-15T07:21:05.743Z,100.00
2022-10-15T07:22:08.160Z,100.00
2022-10-15T07:23:12.573Z,100.00
2022-10-15T07:24:14.430Z,100.00
2022-10-15T07:25:18.833Z,100.00
2022-10-15T07:26:21.403Z,100.00
2022-10-15T07:27:25.804Z,100.00
2022-10-15T07:28:29.030Z,100.00
2022-10-15T07:29:34.762Z,100.00
2022-10-15T07:30:36.730Z,100.00
2022-10-15T07:31:41.251Z,100.00
2022-10-15T07:32:45.601Z,100.00
2022-10-15T07:33:50.997Z,100.00
2022-10-15T07:34:53.441Z,100.00
2022-10-15T07:35:57.885Z,100.00
2022-10-15T07:36:59.688Z,100.00
2022-10-15T07:38:04.821Z,100.00
2022-10-15T07:39:06.669Z,100.00
2022-10-15T07:40:12.049Z,100.00
2022-10-15T07:41:14.199Z,100.00
2022-10-15T07:42:20.570Z,100.00
2022-10-15T07:43:22.446Z,100.00
2022-10-15T07:44:26.894Z,100.00
2022-10-15T07:45:28.855Z,100.00
2022-10-15T07:46:33.249Z,100.00
2022-10-15T07:47:35.067Z,100.00
2022-10-15T07:48:40.900Z,100.00
2022-10-15T07:49:42.641Z,100.00
2022-10-15T07:50:47.231Z,100.00
2022-10-15T07:51:49.037Z,100.00
2022-10-15T07:52:53.461Z,100.00
2022-10-15T07:53:55.674Z,100.00
2022-10-15T07:55:00.178Z,100.00
2022-10-15T07:56:03.021Z,100.00
2022-10-15T07:57:10.964Z,100.00
2022-10-15T07:58:13.146Z,100.00
2022-10-15T07:59:17.546Z,100.00
2022-10-15T08:00:19.448Z,100.00
2022-10-15T08:01:24.186Z,100.00
2022-10-15T08:02:26.390Z,100.00
2022-10-15T08:03:31.198Z,100.00
2022-10-15T08:04:35.119Z,100.00
2022-10-15T08:05:39.564Z,100.00
2022-10-15T08:06:43.986Z,100.00
2022-10-15T08:07:45.940Z,100.00
2022-10-15T08:08:50.580Z,100.00
2022-10-15T08:09:52.378Z,100.00
2022-10-15T08:10:57.381Z,100.00
2022-10-15T08:11:59.229Z,100.00
2022-10-15T08:13:03.709Z,100.00
2022-10-15T08:14:06.054Z,100.00
2022-10-15T08:15:10.722Z,100.00
2022-10-15T08:16:15.509Z,100.00
2022-10-15T08:17:20.993Z,100.00
2022-10-15T08:18:22.797Z,100.00
2022-10-15T08:19:27.265Z,100.00
2022-10-15T08:20:29.108Z,100.00
2022-10-15T08:21:33.496Z,100.00
2022-10-15T08:22:35.663Z,100.00
2022-10-15T08:23:40.547Z,100.00
2022-10-15T08:24:44.976Z,100.00
2022-10-15T08:25:46.784Z,100.00
2022-10-15T08:26:52.164Z,100.00
2022-10-15T08:27:54.210Z,100.00
2022-10-15T08:28:58.670Z,100.00
2022-10-15T08:30:00.533Z,100.00
2022-10-15T08:31:06.297Z,100.00
2022-10-15T08:32:08.250Z,100.00
2022-10-15T08:33:12.694Z,100.00
2022-10-15T08:34:14.498Z,100.00
2022-10-15T08:35:19.301Z,100.00
2022-10-15T08:36:21.244Z,100.00
2022-10-15T08:37:25.947Z,100.00
2022-10-15T08:38:27.850Z,100.00
2022-10-15T08:39:32.269Z,100.00
2022-10-15T08:40:34.086Z,100.00
2022-10-15T08:41:39.733Z,100.00
2022-10-15T08:42:42.395Z,100.00
2022-10-15T08:43:46.781Z,100.00
2022-10-15T08:44:51.993Z,100.00
2022-10-15T08:45:57.512Z,100.00
2022-10-15T08:47:03.386Z,100.00
2022-10-15T08:48:09.067Z,100.00
2022-10-15T08:49:14.803Z,100.00
2022-10-15T08:50:25.589Z,100.00
2022-10-15T08:51:28.997Z,100.00
2022-10-15T08:52:46.805Z,100.00
2022-10-15T08:53:55.522Z,100.00
2022-10-15T08:55:00.118Z,100.00
2022-10-15T08:56:04.304Z,100.00
2022-10-15T08:57:14.382Z,100.00
2022-10-15T08:58:25.554Z,100.00
2022-10-15T08:59:34.500Z,100.00
2022-10-15T09:00:38.689Z,100.00
2022-10-15T09:01:47.801Z,100.00
2022-10-15T09:02:55.353Z,100.00
2022-10-15T09:04:20.087Z,100.00
2022-10-15T09:05:27.469Z,100.00
2022-10-15T09:06:33.346Z,100.00
2022-10-15T09:07:36.325Z,100.00
2022-10-15T09:08:43.519Z,100.00
2022-10-15T09:09:49.403Z,100.00
2022-10-15T09:10:58.253Z,100.00
2022-10-15T09:12:07.265Z,100.00
2022-10-15T09:13:16.604Z,100.00
2022-10-15T09:14:22.735Z,100.00
2022-10-15T09:15:28.002Z,100.00
2022-10-15T09:16:30.786Z,100.00
2022-10-15T09:17:37.520Z,100.00
2022-10-15T09:18:40.160Z,100.00
2022-10-15T09:19:44.805Z,100.00
2022-10-15T09:20:46.650Z,100.00
2022-10-15T09:21:53.913Z,100.00
2022-10-15T09:22:55.776Z,100.00
2022-10-15T09:24:01.621Z,100.00
2022-10-15T09:25:07.848Z,100.00
2022-10-15T09:26:15.013Z,100.00
2022-10-15T09:27:26.265Z,100.00
2022-10-15T09:28:32.944Z,100.00
2022-10-15T09:29:37.673Z,100.00
2022-10-15T09:30:49.950Z,100.00
2022-10-15T09:32:10.794Z,100.00
2022-10-15T09:33:20.579Z,100.00
2022-10-15T09:34:30.174Z,100.00
2022-10-15T09:35:48.280Z,100.00
2022-10-15T09:36:51.840Z,100.00
2022-10-15T09:38:02.280Z,100.00
2022-10-15T09:39:28.958Z,100.00
2022-10-15T09:40:30.846Z,100.00
2022-10-15T09:41:39.485Z,100.00
2022-10-15T09:42:41.290Z,100.00
2022-10-15T09:43:49.964Z,100.00
2022-10-15T09:44:52.843Z,100.00
2022-10-15T09:45:57.423Z,100.00
2022-10-15T09:47:02.892Z,100.00
2022-10-15T09:48:09.412Z,100.00
2022-10-15T09:49:19.152Z,100.00
2022-10-15T09:50:30.155Z,100.00
2022-10-15T09:51:35.866Z,100.00
2022-10-15T09:52:58.977Z,100.00
2022-10-15T09:54:00.735Z,100.00
2022-10-15T09:55:11.175Z,100.00
2022-10-15T09:56:16.948Z,100.00
2022-10-15T09:57:21.345Z,100.00
2022-10-15T09:58:27.519Z,100.00
2022-10-15T10:01:07.191Z,100.00
2022-10-15T10:02:21.261Z,100.00
2022-10-15T10:03:24.442Z,100.00
2022-10-15T10:04:33.063Z,100.00
2022-10-15T10:05:36.324Z,100.00
2022-10-15T10:06:53.921Z,100.00
2022-10-15T10:08:16.542Z,100.00
2022-10-15T10:09:22.515Z,100.00
2022-10-15T10:10:30.642Z,100.00
2022-10-15T10:11:48.412Z,100.00
2022-10-15T10:12:50.296Z,100.00
2022-10-15T10:13:56.793Z,100.00
2022-10-15T10:15:21.428Z,100.00
2022-10-15T10:16:25.974Z,100.00
2022-10-15T10:17:32.868Z,100.00
2022-10-15T10:18:37.761Z,100.00
2022-10-15T10:19:39.626Z,100.00
2022-10-15T10:20:44.734Z,100.00
2022-10-15T10:21:49.117Z,100.00
2022-10-15T10:22:54.498Z,100.00
2022-10-15T10:23:59.018Z,100.00
2022-10-15T10:25:00.855Z,100.00
2022-10-15T10:26:06.361Z,100.00
2022-10-15T10:27:18.736Z,100.00
2022-10-15T10:28:30.140Z,100.00
2022-10-15T10:29:34.473Z,100.00
2022-10-15T10:30:39.964Z,100.00
2022-10-15T10:31:43.893Z,100.00
2022-10-15T10:33:03.554Z,100.00
2022-10-15T10:34:07.938Z,100.00
2022-10-15T10:35:16.729Z,100.00
2022-10-15T10:36:24.988Z,100.00
2022-10-15T10:37:27.225Z,100.00
2022-10-15T10:38:33.148Z,100.00
2022-10-15T10:39:36.417Z,100.00
2022-10-15T10:40:41.015Z,100.00
2022-10-15T10:41:50.276Z,100.00
2022-10-15T10:43:05.208Z,100.00
2022-10-15T10:44:09.154Z,100.00
2022-10-15T10:45:23.943Z,100.00
2022-10-15T10:46:25.765Z,100.00
2022-10-15T10:47:30.158Z,100.00
2022-10-15T10:48:44.388Z,100.00
2022-10-15T10:49:47.393Z,100.00
2022-10-15T10:50:51.810Z,100.00
2022-10-15T10:51:53.721Z,100.00
2022-10-15T10:53:00.229Z,100.00
2022-10-15T10:54:06.118Z,100.00
2022-10-15T10:55:12.522Z,100.00
2022-10-15T10:56:17.253Z,100.00
2022-10-15T10:57:19.474Z,100.00
2022-10-15T10:58:27.259Z,100.00
2022-10-15T10:59:31.438Z,100.00
2022-10-15T11:00:38.682Z,100.00
2022-10-15T11:01:43.197Z,100.00
2022-10-15T11:02:45.310Z,100.00
2022-10-15T11:03:50.572Z,100.00
2022-10-15T11:04:52.414Z,100.00
2022-10-15T11:05:58.879Z,100.00
2022-10-15T11:07:07.282Z,100.00
2022-10-15T11:08:50.476Z,100.00
2022-10-15T11:09:55.389Z,100.00
2022-10-15T11:11:08.099Z,100.00
2022-10-15T11:12:28.583Z,100.00
2022-10-15T11:13:32.944Z,100.00
2022-10-15T11:15:09.813Z,100.00
2022-10-15T11:16:11.646Z,100.00
2022-10-15T11:17:16.019Z,100.00
2022-10-15T11:18:20.605Z,100.00
2022-10-15T11:20:12.936Z,100.00
2022-10-15T11:21:17.945Z,100.00
2022-10-15T11:22:42.087Z,100.00
2022-10-15T11:23:55.621Z,100.00
2022-10-15T11:25:18.401Z,100.00
2022-10-15T11:26:21.951Z,100.00
2022-10-15T11:27:29.341Z,100.00
2022-10-15T11:28:49.137Z,100.00
2022-10-15T11:29:55.979Z,100.00
2022-10-15T11:31:06.129Z,100.00
2022-10-15T11:32:15.159Z,100.00
2022-10-15T11:33:24.365Z,100.00
2022-10-15T11:34:26.142Z,100.00
2022-10-15T11:35:51.503Z,100.00
2022-10-15T11:37:15.068Z,100.00
2022-10-15T11:38:19.639Z,100.00
2022-10-15T11:39:46.389Z,100.00
2022-10-15T11:40:59.485Z,100.00
2022-10-15T11:42:07.585Z,100.00
2022-10-15T11:43:15.076Z,100.00
2022-10-15T11:44:22.909Z,100.00
2022-10-15T11:45:33.358Z,100.00
2022-10-15T11:46:35.144Z,100.00
2022-10-15T11:47:39.811Z,100.00
2022-10-15T11:49:06.289Z,100.00
2022-10-15T11:50:29.356Z,100.00
2022-10-15T11:51:31.222Z,100.00
2022-10-15T11:52:54.606Z,99.46
2022-10-15T11:54:17.586Z,98.47
2022-10-15T11:55:20.262Z,98.03
2022-10-15T11:56:38.075Z,96.98
2022-10-15T11:57:40.859Z,96.35
2022-10-15T11:58:49.311Z,95.93
2022-10-15T11:59:51.163Z,94.66
2022-10-15T12:00:56.780Z,94.13
2022-10-15T12:02:00.951Z,93.43
2022-10-15T12:03:08.496Z,92.67
2022-10-15T12:04:23.361Z,92.41
2022-10-15T12:05:31.295Z,91.45
2022-10-15T12:06:37.889Z,91.96
2022-10-15T12:07:41.326Z,91.93
2022-10-15T12:08:46.804Z,91.85
2022-10-15T12:09:49.851Z,92.55
2022-10-15T12:10:54.338Z,91.86
2022-10-15T12:12:02.096Z,89.32
2022-10-15T12:13:11.829Z,89.15
2022-10-15T12:14:18.216Z,89.44
2022-10-15T12:15:24.006Z,89.37
2022-10-15T12:16:33.360Z,89.75
2022-10-15T12:17:43.023Z,90.28
2022-10-15T12:18:47.424Z,90.86
2022-10-15T12:19:54.524Z,91.04
2022-10-15T12:20:58.623Z,91.65
2022-10-15T12:22:11.330Z,92.49
2022-10-15T12:23:29.255Z,92.18
2022-10-15T12:24:44.786Z,92.15
2022-10-15T12:25:49.450Z,93.25
2022-10-15T12:26:51.255Z,93.93
2022-10-15T12:28:02.657Z,94.23
2022-10-15T12:29:05.785Z,94.30
2022-10-15T12:30:11.804Z,93.37
2022-10-15T12:31:20.328Z,93.28
2022-10-15T12:32:23.240Z,93.31
2022-10-15T12:33:29.139Z,93.20
2022-10-15T12:34:33.586Z,92.21
2022-10-15T12:35:41.856Z,90.55
2022-10-15T12:36:43.669Z,89.07
2022-10-15T12:37:49.611Z,88.62
2022-10-15T12:39:11.594Z,88.57
2022-10-15T12:40:23.471Z,89.03
2022-10-15T12:41:38.239Z,89.44
2022-10-15T12:42:40.127Z,90.55
2022-10-15T12:43:48.969Z,90.63
2022-10-15T12:44:50.806Z,90.44
2022-10-15T12:45:56.271Z,90.20
2022-10-15T12:46:58.709Z,90.27
2022-10-15T12:48:08.861Z,90.13
2022-10-15T12:49:36.207Z,90.67
2022-10-15T12:50:38.179Z,91.21
2022-10-15T12:51:43.069Z,91.80
2022-10-15T12:52:55.609Z,92.08
2022-10-15T12:54:00.979Z,92.91
2022-10-15T12:55:21.645Z,93.51
2022-10-15T12:56:27.834Z,94.17
2022-10-15T12:57:33.095Z,94.48
2022-10-15T12:58:37.724Z,95.45
2022-10-15T12:59:45.566Z,96.39
2022-10-15T13:00:50.042Z,96.79
2022-10-15T13:01:52.314Z,97.57
2022-10-15T13:02:59.367Z,98.00
2022-10-15T13:04:03.849Z,98.78
2022-10-15T13:05:06.235Z,99.46
2022-10-15T13:06:22.878Z,99.66
2022-10-15T13:07:27.387Z,100.00
2022-10-15T13:08:31.906Z,100.00
2022-10-15T13:09:36.438Z,100.00
2022-10-15T13:10:45.630Z,100.00
2022-10-15T13:12:54.389Z,100.00
2022-10-15T13:14:02.017Z,100.00
2022-10-15T13:15:04.398Z,100.00
2022-10-15T13:16:09.972Z,100.00
2022-10-15T13:17:18.605Z,100.00
2022-10-15T13:18:20.431Z,100.00
2022-10-15T13:19:45.191Z,100.00
2022-10-15T13:20:49.183Z,100.00
2022-10-15T13:21:54.821Z,100.00
2022-10-15T13:23:29.700Z,100.00
2022-10-15T13:24:45.733Z,100.00
2022-10-15T13:25:50.524Z,100.00
2022-10-15T13:26:56.567Z,100.00
2022-10-15T13:28:01.077Z,100.00
2022-10-15T13:29:03.019Z,100.00
2022-10-15T13:30:08.711Z,100.00
2022-10-15T13:31:16.471Z,100.00
2022-10-15T13:32:20.907Z,100.00
2022-10-15T13:33:22.747Z,100.00
2022-10-15T13:34:34.316Z,100.00
2022-10-15T13:35:37.538Z,100.00
2022-10-15T13:36:41.941Z,100.00
2022-10-15T13:37:43.965Z,100.00
2022-10-15T13:38:51.916Z,100.00
2022-10-15T13:39:53.798Z,100.00
2022-10-15T13:40:58.178Z,100.00
2022-10-15T13:42:08.891Z,100.00
2022-10-15T13:43:20.549Z,100.00
2022-10-15T13:44:22.973Z,100.00
2022-10-15T13:45:27.353Z,100.00
2022-10-15T13:46:41.517Z,100.00
2022-10-15T13:47:47.393Z,100.00
2022-10-15T13:48:51.784Z,100.00
2022-10-15T13:50:12.599Z,100.00
2022-10-15T13:51:17.020Z,100.00
2022-10-15T13:52:18.947Z,100.00
2022-10-15T13:53:29.406Z,100.00
2022-10-15T13:54:31.605Z,100.00
2022-10-15T13:55:37.016Z,100.00
2022-10-15T13:56:45.255Z,100.00
2022-10-15T13:57:52.359Z,100.00
2022-10-15T13:58:54.304Z,100.00